createdAt,value
2022-11-17T00:00:04.867Z,987.67
2022-11-17T00:01:04.840Z,987.66
2022-11-17T00:02:04.874Z,987.66
2022-11-17T00:03:04.803Z,987.65
2022-11-17T00:04:04.774Z,987.64
2022-11-17T00:05:04.759Z,987.55
2022-11-17T00:06:04.734Z,987.58
2022-11-17T00:07:04.753Z,987.53
2022-11-17T00:08:04.803Z,987.59
2022-11-17T00:09:04.670Z,987.53
2022-11-17T00:10:04.649Z,987.54
2022-11-17T00:11:04.627Z,987.53
2022-11-17T00:12:04.608Z,987.46
2022-11-17T00:13:04.584Z,987.46
2022-11-17T00:14:04.572Z,987.49
2022-11-17T00:15:04.541Z,987.47
2022-11-17T00:16:04.522Z,987.44
2022-11-17T00:17:04.499Z,987.44
2022-11-17T00:18:04.480Z,987.45
2022-11-17T00:19:04.455Z,987.34
2022-11-17T00:20:04.438Z,987.37
2022-11-17T00:21:04.412Z,987.35
2022-11-17T00:22:04.389Z,987.37
2022-11-17T00:23:04.375Z,987.37
2022-11-17T00:24:04.367Z,987.31
2022-11-17T00:25:04.335Z,987.31
2022-11-17T00:26:04.309Z,987.26
2022-11-17T00:27:04.279Z,987.25
2022-11-17T00:28:04.257Z,987.26
2022-11-17T00:29:04.236Z,987.25
2022-11-17T00:30:04.216Z,987.20
2022-11-17T00:31:04.195Z,987.24
2022-11-17T00:32:04.175Z,987.18
2022-11-17T00:33:04.149Z,987.15
2022-11-17T00:34:04.131Z,987.24
2022-11-17T00:35:04.107Z,987.10
2022-11-17T00:36:04.094Z,987.08
2022-11-17T00:37:04.066Z,987.04
2022-11-17T00:38:04.050Z,987.01
2022-11-17T00:39:04.021Z,986.97
2022-11-17T00:40:04.119Z,986.97
2022-11-17T00:41:03.981Z,987.01
2022-11-17T00:42:03.961Z,986.97
2022-11-17T00:43:03.937Z,986.96
2022-11-17T00:44:03.931Z,986.94
2022-11-17T00:45:03.891Z,986.92
2022-11-17T00:46:03.874Z,986.89
2022-11-17T00:47:03.852Z,986.84
2022-11-17T00:48:03.827Z,986.86
2022-11-17T00:49:03.808Z,986.83
2022-11-17T00:50:03.791Z,986.91
2022-11-17T00:51:03.763Z,986.83
2022-11-17T00:52:03.747Z,986.86
2022-11-17T00:53:03.720Z,986.84
2022-11-17T00:54:03.703Z,986.86
2022-11-17T00:55:03.835Z,986.86
2022-11-17T00:56:03.683Z,986.82
2022-11-17T00:57:03.640Z,986.83
2022-11-17T00:58:03.614Z,986.76
2022-11-17T00:59:03.607Z,986.72
2022-11-17T01:00:03.571Z,986.76
2022-11-17T01:01:03.599Z,986.77
2022-11-17T01:02:03.533Z,986.81
2022-11-17T01:03:03.526Z,986.73
2022-11-17T01:04:03.877Z,986.72
2022-11-17T01:05:03.465Z,986.65
2022-11-17T01:06:03.441Z,986.58
2022-11-17T01:07:03.495Z,986.67
2022-11-17T01:08:03.462Z,986.63
2022-11-17T01:09:03.380Z,986.60
2022-11-17T01:10:03.359Z,986.57
2022-11-17T01:11:03.336Z,986.54
2022-11-17T01:12:03.431Z,986.50
2022-11-17T01:13:03.309Z,986.54
2022-11-17T01:14:03.268Z,986.54
2022-11-17T01:15:03.255Z,986.55
2022-11-17T01:16:03.237Z,986.51
2022-11-17T01:17:03.213Z,986.53
2022-11-17T01:18:03.205Z,986.47
2022-11-17T01:19:03.161Z,986.46
2022-11-17T01:20:03.140Z,986.43
2022-11-17T01:21:03.123Z,986.44
2022-11-17T01:22:03.101Z,986.41
2022-11-17T01:23:03.076Z,986.30
2022-11-17T01:24:03.055Z,986.34
2022-11-17T01:25:03.031Z,986.30
2022-11-17T01:26:03.010Z,986.33
2022-11-17T01:27:02.996Z,986.29
2022-11-17T01:28:03.079Z,986.26
2022-11-17T01:29:02.952Z,986.23
2022-11-17T01:30:02.928Z,986.21
2022-11-17T01:31:02.902Z,986.13
2022-11-17T01:32:02.892Z,986.09
2022-11-17T01:33:02.860Z,986.04
2022-11-17T01:34:02.838Z,986.04
2022-11-17T01:35:02.823Z,986.00
2022-11-17T01:36:02.792Z,986.07
2022-11-17T01:37:02.778Z,986.05
2022-11-17T01:38:02.756Z,986.08
2022-11-17T01:39:02.732Z,986.12
2022-11-17T01:40:02.703Z,986.05
2022-11-17T01:41:02.690Z,985.95
2022-11-17T01:42:02.666Z,985.93
2022-11-17T01:43:02.641Z,985.96
2022-11-17T01:44:02.735Z,985.89
2022-11-17T01:45:02.601Z,985.91
2022-11-17T01:46:02.580Z,985.88
2022-11-17T01:47:02.558Z,985.75
2022-11-17T01:48:02.531Z,985.73
2022-11-17T01:49:02.511Z,985.72
2022-11-17T01:50:02.487Z,985.71
2022-11-17T01:51:02.473Z,985.76
2022-11-17T01:52:02.448Z,985.60
2022-11-17T01:53:02.427Z,985.67
2022-11-17T01:54:02.417Z,985.66
2022-11-17T01:55:02.387Z,985.61
2022-11-17T01:56:02.361Z,985.56
2022-11-17T01:57:02.341Z,985.58
2022-11-17T01:58:02.319Z,985.55
2022-11-17T01:59:02.297Z,985.55
2022-11-17T02:00:02.296Z,985.50
2022-11-17T02:01:02.254Z,985.63
2022-11-17T02:02:02.380Z,985.54
2022-11-17T02:03:02.216Z,985.53
2022-11-17T02:04:02.190Z,985.51
2022-11-17T02:05:02.196Z,985.55
2022-11-17T02:06:02.145Z,985.55
2022-11-17T02:07:02.279Z,985.51
2022-11-17T02:08:02.103Z,985.56
2022-11-17T02:09:02.083Z,985.53
2022-11-17T02:10:02.062Z,985.51
2022-11-17T02:11:02.039Z,985.48
2022-11-17T02:12:02.017Z,985.53
2022-11-17T02:13:02.003Z,985.45
2022-11-17T02:14:01.975Z,985.48
2022-11-17T02:15:01.948Z,985.46
2022-11-17T02:16:02.041Z,985.43
2022-11-17T02:17:10.099Z,985.43
2022-11-17T02:18:01.882Z,985.34
2022-11-17T02:19:01.863Z,985.39
2022-11-17T02:20:01.837Z,985.34
2022-11-17T02:21:01.818Z,985.39
2022-11-17T02:22:01.793Z,985.42
2022-11-17T02:23:01.781Z,985.34
2022-11-17T02:24:01.748Z,985.29
2022-11-17T02:25:01.742Z,985.29
2022-11-17T02:26:01.709Z,985.24
2022-11-17T02:27:01.687Z,985.15
2022-11-17T02:28:01.661Z,985.15
2022-11-17T02:29:01.639Z,985.10
2022-11-17T02:30:01.622Z,985.15
2022-11-17T02:31:01.600Z,985.03
2022-11-17T02:32:01.594Z,985.04
2022-11-17T02:33:01.555Z,985.06
2022-11-17T02:34:01.531Z,984.93
2022-11-17T02:35:01.510Z,984.96
2022-11-17T02:36:01.489Z,985.01
2022-11-17T02:37:01.467Z,984.94
2022-11-17T02:38:01.454Z,984.93
2022-11-17T02:39:01.424Z,984.86
2022-11-17T02:40:01.401Z,984.93
2022-11-17T02:41:01.376Z,984.85
2022-11-17T02:42:01.357Z,984.72
2022-11-17T02:43:01.340Z,984.74
2022-11-17T02:44:01.317Z,984.78
2022-11-17T02:45:01.292Z,984.74
2022-11-17T02:46:01.272Z,984.77
2022-11-17T02:47:01.250Z,984.72
2022-11-17T02:48:01.246Z,984.75
2022-11-17T02:49:01.208Z,984.72
2022-11-17T02:50:01.186Z,984.72
2022-11-17T02:51:01.165Z,984.63
2022-11-17T02:52:01.145Z,984.57
2022-11-17T02:53:01.120Z,984.60
2022-11-17T02:54:01.094Z,984.56
2022-11-17T02:55:01.078Z,984.52
2022-11-17T02:56:01.050Z,984.57
2022-11-17T02:57:01.029Z,984.47
2022-11-17T02:58:01.007Z,984.51
2022-11-17T02:59:00.984Z,984.51
2022-11-17T03:00:00.964Z,984.47
2022-11-17T03:01:00.942Z,984.36
2022-11-17T03:02:00.934Z,984.38
2022-11-17T03:03:00.899Z,984.43
2022-11-17T03:04:00.986Z,984.37
2022-11-17T03:05:00.853Z,984.34
2022-11-17T03:06:00.833Z,984.20
2022-11-17T03:07:00.869Z,984.32
2022-11-17T03:08:00.789Z,984.22
2022-11-17T03:09:00.771Z,984.24
2022-11-17T03:10:00.744Z,984.21
2022-11-17T03:11:00.722Z,984.22
2022-11-17T03:12:00.697Z,984.24
2022-11-17T03:13:00.677Z,984.21
2022-11-17T03:14:00.657Z,984.26
2022-11-17T03:15:00.635Z,984.32
2022-11-17T03:16:00.623Z,984.11
2022-11-17T03:17:00.593Z,984.22
2022-11-17T03:18:00.568Z,984.30
2022-11-17T03:19:00.547Z,984.16
2022-11-17T03:20:00.544Z,984.15
2022-11-17T03:21:00.504Z,984.17
2022-11-17T03:22:00.485Z,984.20
2022-11-17T03:23:00.458Z,984.11
2022-11-17T03:24:00.433Z,984.11
2022-11-17T03:25:00.418Z,984.19
2022-11-17T03:26:00.390Z,984.15
2022-11-17T03:27:00.373Z,984.10
2022-11-17T03:28:00.345Z,984.13
2022-11-17T03:29:00.326Z,984.12
2022-11-17T03:30:00.304Z,984.13
2022-11-17T03:31:00.289Z,984.04
2022-11-17T03:32:00.261Z,984.03
2022-11-17T03:33:00.242Z,984.03
2022-11-17T03:34:00.215Z,984.03
2022-11-17T03:35:00.203Z,984.00
2022-11-17T03:36:00.287Z,983.96
2022-11-17T03:37:00.158Z,983.91
2022-11-17T03:38:00.128Z,983.94
2022-11-17T03:39:00.133Z,983.98
2022-11-17T03:40:00.095Z,984.03
2022-11-17T03:41:00.159Z,983.97
2022-11-17T03:42:00.043Z,983.92
2022-11-17T03:43:00.017Z,983.79
2022-11-17T03:43:59.994Z,983.90
2022-11-17T03:44:59.972Z,983.88
2022-11-17T03:45:59.951Z,983.73
2022-11-17T03:46:59.930Z,983.84
2022-11-17T03:47:59.906Z,983.81
2022-11-17T03:48:59.887Z,983.84
2022-11-17T03:49:59.862Z,983.81
2022-11-17T03:50:59.840Z,983.83
2022-11-17T03:51:59.937Z,983.86
2022-11-17T03:52:59.799Z,983.83
2022-11-17T03:53:59.775Z,983.77
2022-11-17T03:54:59.759Z,983.82
2022-11-17T03:55:59.730Z,983.78
2022-11-17T03:56:59.712Z,983.79
2022-11-17T03:57:59.687Z,983.57
2022-11-17T03:58:59.668Z,983.77
2022-11-17T03:59:59.643Z,983.81
2022-11-17T04:00:59.620Z,983.66
2022-11-17T04:01:59.678Z,983.77
2022-11-17T04:02:59.584Z,983.70
2022-11-17T04:03:59.555Z,983.69
2022-11-17T04:04:59.531Z,983.74
2022-11-17T04:05:59.510Z,983.70
2022-11-17T04:06:59.514Z,983.68
2022-11-17T04:07:59.488Z,983.69
2022-11-17T04:08:59.445Z,983.66
2022-11-17T04:09:59.424Z,983.55
2022-11-17T04:10:59.406Z,983.59
2022-11-17T04:11:59.382Z,983.58
2022-11-17T04:12:59.358Z,983.61
2022-11-17T04:13:59.338Z,983.57
2022-11-17T04:14:59.321Z,983.62
2022-11-17T04:15:59.528Z,983.52
2022-11-17T04:16:59.266Z,983.49
2022-11-17T04:17:59.248Z,983.44
2022-11-17T04:18:59.366Z,983.46
2022-11-17T04:19:59.200Z,983.44
2022-11-17T04:20:59.183Z,983.42
2022-11-17T04:21:59.161Z,983.44
2022-11-17T04:22:59.141Z,983.40
2022-11-17T04:23:59.134Z,983.35
2022-11-17T04:24:59.091Z,983.45
2022-11-17T04:25:59.070Z,983.32
2022-11-17T04:26:59.051Z,983.38
2022-11-17T04:27:59.024Z,983.45
2022-11-17T04:28:59.006Z,983.35
2022-11-17T04:29:58.983Z,983.34
2022-11-17T04:30:58.960Z,983.23
2022-11-17T04:31:58.936Z,983.28
2022-11-17T04:32:58.928Z,983.27
2022-11-17T04:33:58.895Z,983.26
2022-11-17T04:34:58.873Z,983.22
2022-11-17T04:35:58.852Z,983.19
2022-11-17T04:37:00.774Z,983.20
2022-11-17T04:37:58.809Z,983.21
2022-11-17T04:38:58.785Z,983.21
2022-11-17T04:39:58.877Z,983.18
2022-11-17T04:40:58.747Z,983.07
2022-11-17T04:41:58.719Z,983.15
2022-11-17T04:42:58.695Z,983.09
2022-11-17T04:43:58.672Z,982.96
2022-11-17T04:44:58.648Z,983.00
2022-11-17T04:45:58.631Z,982.99
2022-11-17T04:46:58.610Z,982.92
2022-11-17T04:47:58.588Z,982.95
2022-11-17T04:48:58.564Z,982.97
2022-11-17T04:49:58.542Z,982.88
2022-11-17T04:50:58.521Z,982.88
2022-11-17T04:51:58.495Z,982.91
2022-11-17T04:52:58.484Z,982.91
2022-11-17T04:53:58.453Z,982.89
2022-11-17T04:54:58.434Z,982.89
2022-11-17T04:55:58.428Z,982.94
2022-11-17T04:56:58.392Z,982.94
2022-11-17T04:57:58.363Z,982.73
2022-11-17T04:58:58.348Z,982.90
2022-11-17T04:59:58.321Z,982.85
2022-11-17T05:00:58.299Z,982.85
2022-11-17T05:02:02.633Z,982.77
2022-11-17T05:02:58.253Z,982.88
2022-11-17T05:03:58.233Z,982.87
2022-11-17T05:04:58.211Z,982.89
2022-11-17T05:05:58.185Z,982.79
2022-11-17T05:06:58.192Z,982.72
2022-11-17T05:07:58.148Z,982.85
2022-11-17T05:08:58.126Z,982.80
2022-11-17T05:09:58.098Z,982.89
2022-11-17T05:10:58.120Z,982.77
2022-11-17T05:11:58.171Z,982.77
2022-11-17T05:12:58.037Z,982.73
2022-11-17T05:13:58.011Z,982.81
2022-11-17T05:14:57.990Z,982.78
2022-11-17T05:15:57.967Z,982.75
2022-11-17T05:16:57.948Z,982.80
2022-11-17T05:17:57.923Z,982.81
2022-11-17T05:18:57.907Z,982.80
2022-11-17T05:19:57.882Z,982.81
2022-11-17T05:20:57.857Z,982.81
2022-11-17T05:21:57.837Z,982.85
2022-11-17T05:23:00.269Z,982.81
2022-11-17T05:23:57.798Z,982.76
2022-11-17T05:24:57.773Z,982.79
2022-11-17T05:25:57.744Z,982.76
2022-11-17T05:26:57.728Z,982.74
2022-11-17T05:27:57.824Z,982.73
2022-11-17T05:28:57.683Z,982.70
2022-11-17T05:29:57.666Z,982.85
2022-11-17T05:30:57.640Z,982.76
2022-11-17T05:31:57.621Z,982.79
2022-11-17T05:32:57.595Z,982.77
2022-11-17T05:33:57.571Z,982.81
2022-11-17T05:34:57.551Z,982.74
2022-11-17T05:35:57.526Z,982.75
2022-11-17T05:36:57.504Z,982.69
2022-11-17T05:37:57.483Z,982.84
2022-11-17T05:38:57.469Z,982.78
2022-11-17T05:39:57.443Z,982.70
2022-11-17T05:40:57.417Z,982.71
2022-11-17T05:41:57.393Z,982.78
2022-11-17T05:42:57.381Z,982.71
2022-11-17T05:43:57.377Z,982.67
2022-11-17T05:44:57.334Z,982.63
2022-11-17T05:45:57.308Z,982.66
2022-11-17T05:46:57.286Z,982.59
2022-11-17T05:47:57.263Z,982.66
2022-11-17T05:48:57.243Z,982.62
2022-11-17T05:49:57.228Z,982.66
2022-11-17T05:50:57.212Z,982.60
2022-11-17T05:51:57.174Z,982.56
2022-11-17T05:52:57.158Z,982.55
2022-11-17T05:53:57.133Z,982.55
2022-11-17T05:54:57.112Z,982.49
2022-11-17T05:55:57.087Z,982.52
2022-11-17T05:56:57.068Z,982.53
2022-11-17T05:57:57.046Z,982.59
2022-11-17T05:58:57.028Z,982.58
2022-11-17T05:59:57.117Z,982.53
2022-11-17T06:00:56.980Z,982.51
2022-11-17T06:01:56.955Z,982.50
2022-11-17T06:02:56.936Z,982.68
2022-11-17T06:03:56.938Z,982.54
2022-11-17T06:04:56.890Z,982.50
2022-11-17T06:05:56.869Z,982.55
2022-11-17T06:06:56.936Z,982.59
2022-11-17T06:07:56.826Z,982.51
2022-11-17T06:08:56.803Z,982.46
2022-11-17T06:09:56.778Z,982.44
2022-11-17T06:10:56.760Z,982.43
2022-11-17T06:11:59.767Z,982.47
2022-11-17T06:12:56.720Z,982.46
2022-11-17T06:13:56.696Z,982.51
2022-11-17T06:14:56.679Z,982.51
2022-11-17T06:15:56.670Z,982.56
2022-11-17T06:16:56.626Z,982.54
2022-11-17T06:17:56.602Z,982.59
2022-11-17T06:18:56.586Z,982.48
2022-11-17T06:19:56.562Z,982.47
2022-11-17T06:20:56.538Z,982.41
2022-11-17T06:22:11.785Z,982.44
2022-11-17T06:22:56.494Z,982.44
2022-11-17T06:23:56.474Z,982.52
2022-11-17T06:24:56.455Z,982.41
2022-11-17T06:25:56.427Z,982.47
2022-11-17T06:26:56.407Z,982.41
2022-11-17T06:27:56.386Z,982.46
2022-11-17T06:28:56.367Z,982.43
2022-11-17T06:29:56.337Z,982.40
2022-11-17T06:30:56.322Z,982.37
2022-11-17T06:31:56.411Z,982.40
2022-11-17T06:32:56.279Z,982.40
2022-11-17T06:33:56.254Z,982.39
2022-11-17T06:34:56.586Z,982.40
2022-11-17T06:35:56.208Z,982.41
2022-11-17T06:36:56.188Z,982.40
2022-11-17T06:37:56.163Z,982.36
2022-11-17T06:38:56.148Z,982.38
2022-11-17T06:39:56.117Z,982.37
2022-11-17T06:40:56.105Z,982.36
2022-11-17T06:41:56.076Z,982.36
2022-11-17T06:42:56.054Z,982.40
2022-11-17T06:43:56.041Z,982.37
2022-11-17T06:44:56.010Z,982.33
2022-11-17T06:45:55.987Z,982.28
2022-11-17T06:46:55.968Z,982.27
2022-11-17T06:47:55.964Z,982.24
2022-11-17T06:48:55.930Z,982.23
2022-11-17T06:49:55.903Z,982.29
2022-11-17T06:50:55.885Z,982.27
2022-11-17T06:51:55.853Z,982.32
2022-11-17T06:52:55.857Z,982.34
2022-11-17T06:53:55.824Z,982.38
2022-11-17T06:54:55.810Z,982.32
2022-11-17T06:55:55.780Z,982.39
2022-11-17T06:56:55.766Z,982.42
2022-11-17T06:57:55.737Z,982.34
2022-11-17T06:58:55.720Z,982.36
2022-11-17T06:59:55.690Z,982.32
2022-11-17T07:00:55.778Z,982.37
2022-11-17T07:01:55.652Z,982.37
2022-11-17T07:02:55.638Z,982.40
2022-11-17T07:03:55.770Z,982.43
2022-11-17T07:04:55.589Z,982.42
2022-11-17T07:05:55.569Z,982.39
2022-11-17T07:06:55.599Z,982.36
2022-11-17T07:07:55.524Z,982.35
2022-11-17T07:08:55.504Z,982.33
2022-11-17T07:09:55.476Z,982.32
2022-11-17T07:10:55.458Z,982.26
2022-11-17T07:11:55.434Z,982.32
2022-11-17T07:12:55.411Z,982.28
2022-11-17T07:13:55.386Z,982.34
2022-11-17T07:14:55.373Z,982.29
2022-11-17T07:15:55.347Z,982.24
2022-11-17T07:16:55.322Z,982.30
2022-11-17T07:17:55.305Z,982.15
2022-11-17T07:18:55.287Z,982.21
2022-11-17T07:19:55.375Z,982.20
2022-11-17T07:20:55.245Z,982.21
2022-11-17T07:21:55.214Z,982.19
2022-11-17T07:22:55.198Z,982.18
2022-11-17T07:23:55.173Z,982.21
2022-11-17T07:24:55.152Z,982.27
2022-11-17T07:25:55.125Z,982.20
2022-11-17T07:26:55.105Z,982.20
2022-11-17T07:27:55.081Z,982.21
2022-11-17T07:28:55.063Z,982.17
2022-11-17T07:29:55.040Z,982.16
2022-11-17T07:30:55.020Z,982.13
2022-11-17T07:31:54.994Z,982.19
2022-11-17T07:32:55.163Z,982.16
2022-11-17T07:33:54.954Z,982.16
2022-11-17T07:34:54.934Z,982.12
2022-11-17T07:35:55.034Z,982.14
2022-11-17T07:36:54.887Z,982.21
2022-11-17T07:37:54.864Z,982.22
2022-11-17T07:38:54.850Z,982.18
2022-11-17T07:39:54.820Z,982.22
2022-11-17T07:40:54.800Z,982.20
2022-11-17T07:41:54.772Z,982.24
2022-11-17T07:42:54.759Z,982.25
2022-11-17T07:43:54.731Z,982.26
2022-11-17T07:44:54.710Z,982.18
2022-11-17T07:45:54.687Z,982.28
2022-11-17T07:46:54.673Z,982.26
2022-11-17T07:47:54.640Z,982.28
2022-11-17T07:48:54.624Z,982.25
2022-11-17T07:49:54.596Z,982.29
2022-11-17T07:50:54.582Z,982.23
2022-11-17T07:51:54.682Z,982.18
2022-11-17T07:52:54.540Z,982.24
2022-11-17T07:53:54.519Z,982.20
2022-11-17T07:54:54.501Z,982.29
2022-11-17T07:55:54.467Z,982.26
2022-11-17T07:56:54.451Z,982.27
2022-11-17T07:57:54.427Z,982.28
2022-11-17T07:58:54.411Z,982.29
2022-11-17T07:59:54.380Z,982.28
2022-11-17T08:00:54.390Z,982.33
2022-11-17T08:01:54.341Z,982.31
2022-11-17T08:02:54.321Z,982.28
2022-11-17T08:03:54.335Z,982.29
2022-11-17T08:04:54.277Z,982.27
2022-11-17T08:05:54.252Z,982.20
2022-11-17T08:06:54.295Z,982.23
2022-11-17T08:07:54.228Z,982.24
2022-11-17T08:08:54.190Z,982.28
2022-11-17T08:09:54.175Z,982.34
2022-11-17T08:10:54.161Z,982.38
2022-11-17T08:11:54.120Z,982.43
2022-11-17T08:12:54.103Z,982.37
2022-11-17T08:13:54.082Z,982.43
2022-11-17T08:14:54.054Z,982.45
2022-11-17T08:15:54.037Z,982.46
2022-11-17T08:16:54.019Z,982.45
2022-11-17T08:17:53.990Z,982.42
2022-11-17T08:18:53.968Z,982.42
2022-11-17T08:19:53.946Z,982.44
2022-11-17T08:20:53.926Z,982.48
2022-11-17T08:21:53.903Z,982.39
2022-11-17T08:22:53.886Z,982.39
2022-11-17T08:23:53.875Z,982.38
2022-11-17T08:24:53.851Z,982.36
2022-11-17T08:25:53.822Z,982.41
2022-11-17T08:26:53.802Z,982.39
2022-11-17T08:27:53.772Z,982.40
2022-11-17T08:28:58.340Z,982.32
2022-11-17T08:29:53.731Z,982.40
2022-11-17T08:30:53.714Z,982.44
2022-11-17T08:31:53.691Z,982.40
2022-11-17T08:32:53.674Z,982.48
2022-11-17T08:33:53.648Z,982.48
2022-11-17T08:34:53.627Z,982.47
2022-11-17T08:35:53.603Z,982.45
2022-11-17T08:36:53.587Z,982.47
2022-11-17T08:37:53.556Z,982.49
2022-11-17T08:38:53.751Z,982.44
2022-11-17T08:39:53.637Z,982.54
2022-11-17T08:40:53.497Z,982.56
2022-11-17T08:41:53.469Z,982.57
2022-11-17T08:42:59.116Z,982.52
2022-11-17T08:43:53.444Z,982.52
2022-11-17T08:44:53.410Z,982.57
2022-11-17T08:45:53.396Z,982.58
2022-11-17T08:46:53.382Z,982.63
2022-11-17T08:47:53.344Z,982.62
2022-11-17T08:48:56.825Z,982.59
2022-11-17T08:49:53.313Z,982.59
2022-11-17T08:50:53.283Z,982.65
2022-11-17T08:51:53.263Z,982.61
2022-11-17T08:52:53.240Z,982.65
2022-11-17T08:53:53.218Z,982.62
2022-11-17T08:54:53.239Z,982.71
2022-11-17T08:55:53.342Z,982.70
2022-11-17T08:56:53.181Z,982.68
2022-11-17T08:57:53.145Z,982.66
2022-11-17T08:58:53.100Z,982.70
2022-11-17T08:59:53.090Z,982.76
2022-11-17T09:00:53.192Z,982.82
2022-11-17T09:01:53.043Z,982.79
2022-11-17T09:02:53.028Z,982.82
2022-11-17T09:03:52.995Z,982.80
2022-11-17T09:04:53.036Z,982.79
2022-11-17T09:05:52.961Z,982.79
2022-11-17T09:06:52.998Z,982.82
2022-11-17T09:07:53.044Z,982.83
2022-11-17T09:08:52.968Z,982.88
2022-11-17T09:09:52.869Z,982.84
2022-11-17T09:10:52.866Z,982.94
2022-11-17T09:11:52.837Z,982.99
2022-11-17T09:12:52.811Z,983.05
2022-11-17T09:13:52.786Z,982.98
2022-11-17T09:14:52.771Z,982.98
2022-11-17T09:15:52.735Z,983.05
2022-11-17T09:16:52.716Z,983.03
2022-11-17T09:17:52.691Z,983.00
2022-11-17T09:18:52.678Z,983.00
2022-11-17T09:19:52.654Z,983.02
2022-11-17T09:20:52.633Z,982.97
2022-11-17T09:21:52.608Z,982.97
2022-11-17T09:22:52.596Z,982.98
2022-11-17T09:23:52.565Z,983.03
2022-11-17T09:24:52.549Z,983.06
2022-11-17T09:25:52.528Z,983.11
2022-11-17T09:26:52.501Z,983.11
2022-11-17T09:27:52.494Z,983.08
2022-11-17T09:28:52.461Z,983.13
2022-11-17T09:29:52.433Z,983.18
2022-11-17T09:30:52.422Z,983.19
2022-11-17T09:31:52.443Z,983.19
2022-11-17T09:32:52.379Z,983.23
2022-11-17T09:33:52.450Z,983.24
2022-11-17T09:34:52.451Z,983.21
2022-11-17T09:35:52.307Z,983.28
2022-11-17T09:36:52.287Z,983.29
2022-11-17T09:37:52.266Z,983.30
2022-11-17T09:38:52.260Z,983.35
2022-11-17T09:39:52.227Z,983.33
2022-11-17T09:40:52.226Z,983.38
2022-11-17T09:41:52.178Z,983.38
2022-11-17T09:42:52.162Z,983.37
2022-11-17T09:43:52.156Z,983.40
2022-11-17T09:44:52.136Z,983.42
2022-11-17T09:45:52.096Z,983.40
2022-11-17T09:46:52.093Z,983.44
2022-11-17T09:47:58.528Z,983.42
2022-11-17T09:48:52.179Z,983.41
2022-11-17T09:49:57.018Z,983.41
2022-11-17T09:50:51.997Z,983.41
2022-11-17T09:51:51.994Z,983.43
2022-11-17T09:52:51.950Z,983.42
2022-11-17T09:53:51.925Z,983.43
2022-11-17T09:54:51.915Z,983.43
2022-11-17T09:55:51.891Z,983.39
2022-11-17T09:56:51.872Z,983.38
2022-11-17T09:57:51.843Z,983.38
2022-11-17T09:58:51.822Z,983.40
2022-11-17T09:59:51.920Z,983.42
2022-11-17T10:00:51.793Z,983.40
2022-11-17T10:01:51.773Z,983.40
2022-11-17T10:02:51.739Z,983.41
2022-11-17T10:03:51.721Z,983.47
2022-11-17T10:04:51.699Z,983.44
2022-11-17T10:05:51.674Z,983.46
2022-11-17T10:06:51.795Z,983.46
2022-11-17T10:07:51.626Z,983.50
2022-11-17T10:08:51.618Z,983.50
2022-11-17T10:09:51.588Z,983.51
2022-11-17T10:10:51.621Z,983.51
2022-11-17T10:11:51.563Z,983.56
2022-11-17T10:12:51.548Z,983.54
2022-11-17T10:13:51.509Z,983.56
2022-11-17T10:14:51.491Z,983.55
2022-11-17T10:15:51.578Z,983.54
2022-11-17T10:16:51.441Z,983.54
2022-11-17T10:17:51.525Z,983.56
2022-11-17T10:18:51.414Z,983.59
2022-11-17T10:19:51.381Z,983.56
2022-11-17T10:20:51.378Z,983.55
2022-11-17T10:21:51.339Z,983.56
2022-11-17T10:22:51.318Z,983.58
2022-11-17T10:23:51.302Z,983.55
2022-11-17T10:24:51.297Z,983.56
2022-11-17T10:25:51.258Z,983.56
2022-11-17T10:26:51.235Z,983.55
2022-11-17T10:27:51.210Z,983.56
2022-11-17T10:28:51.193Z,983.55
2022-11-17T10:29:51.172Z,983.58
2022-11-17T10:30:51.149Z,983.55
2022-11-17T10:31:51.250Z,983.55
2022-11-17T10:32:51.112Z,983.49
2022-11-17T10:33:51.154Z,983.51
2022-11-17T10:34:51.068Z,983.52
2022-11-17T10:35:51.049Z,983.52
2022-11-17T10:36:51.027Z,983.51
2022-11-17T10:37:51.007Z,983.52
2022-11-17T10:38:50.978Z,983.55
2022-11-17T10:39:50.959Z,983.55
2022-11-17T10:40:50.951Z,983.51
2022-11-17T10:41:50.918Z,983.58
2022-11-17T10:42:50.904Z,983.57
2022-11-17T10:43:50.898Z,983.58
2022-11-17T10:44:50.861Z,983.57
2022-11-17T10:45:50.838Z,983.59
2022-11-17T10:46:52.679Z,983.59
2022-11-17T10:47:50.820Z,983.61
2022-11-17T10:48:50.779Z,983.63
2022-11-17T10:49:50.762Z,983.60
2022-11-17T10:50:50.736Z,983.64
2022-11-17T10:51:50.714Z,983.62
2022-11-17T10:52:50.694Z,983.60
2022-11-17T10:53:50.988Z,983.60
2022-11-17T10:54:50.661Z,983.62
2022-11-17T10:55:50.637Z,983.62
2022-11-17T10:56:50.610Z,983.60
2022-11-17T10:57:50.589Z,983.60
2022-11-17T10:58:50.573Z,983.61
2022-11-17T10:59:56.181Z,983.59
2022-11-17T11:00:50.576Z,983.62
2022-11-17T11:01:50.660Z,983.63
2022-11-17T11:02:50.510Z,983.66
2022-11-17T11:03:50.523Z,983.67
2022-11-17T11:04:50.475Z,983.71
2022-11-17T11:05:50.424Z,983.73
2022-11-17T11:06:50.510Z,983.77
2022-11-17T11:07:50.416Z,983.71
2022-11-17T11:08:50.370Z,983.69
2022-11-17T11:09:50.348Z,983.69
2022-11-17T11:10:50.327Z,983.72
2022-11-17T11:11:50.321Z,983.71
2022-11-17T11:12:50.288Z,983.73
2022-11-17T11:13:50.275Z,983.71
2022-11-17T11:14:50.249Z,983.75
2022-11-17T11:15:50.224Z,983.68
2022-11-17T11:16:50.208Z,983.72
2022-11-17T11:17:50.189Z,983.71
2022-11-17T11:18:50.169Z,983.67
2022-11-17T11:19:50.256Z,983.77
2022-11-17T11:20:50.125Z,983.78
2022-11-17T11:21:50.109Z,983.74
2022-11-17T11:22:50.088Z,983.80
2022-11-17T11:23:50.064Z,983.75
2022-11-17T11:24:50.044Z,983.79
2022-11-17T11:25:50.024Z,983.76
2022-11-17T11:26:50.009Z,983.73
2022-11-17T11:27:49.979Z,983.77
2022-11-17T11:28:54.525Z,983.78
2022-11-17T11:29:49.942Z,983.77
2022-11-17T11:30:49.928Z,983.79
2022-11-17T11:31:49.905Z,983.80
2022-11-17T11:32:49.891Z,983.86
2022-11-17T11:33:49.866Z,983.83
2022-11-17T11:34:49.843Z,983.85
2022-11-17T11:35:49.867Z,983.84
2022-11-17T11:36:49.804Z,983.83
2022-11-17T11:37:49.783Z,983.83
2022-11-17T11:38:49.767Z,983.81
2022-11-17T11:39:49.738Z,983.85
2022-11-17T11:40:49.723Z,983.82
2022-11-17T11:41:49.698Z,983.84
2022-11-17T11:42:49.682Z,983.86
2022-11-17T11:43:49.658Z,983.86
2022-11-17T11:44:49.647Z,983.85
2022-11-17T11:45:49.618Z,983.90
2022-11-17T11:46:49.603Z,983.88
2022-11-17T11:47:49.578Z,983.86
2022-11-17T11:48:49.566Z,983.87
2022-11-17T11:49:49.538Z,983.82
2022-11-17T11:50:49.525Z,983.85
2022-11-17T11:51:49.517Z,983.86
2022-11-17T11:52:49.485Z,983.87
2022-11-17T11:53:49.467Z,983.84
2022-11-17T11:54:51.027Z,983.90
2022-11-17T11:55:49.411Z,983.92
2022-11-17T11:56:49.407Z,983.87
2022-11-17T11:57:49.379Z,983.89
2022-11-17T11:58:49.364Z,983.90
2022-11-17T11:59:49.361Z,983.89
2022-11-17T12:00:49.314Z,983.94
2022-11-17T12:01:49.342Z,983.95
2022-11-17T12:02:49.342Z,983.92
2022-11-17T12:03:49.267Z,983.99
2022-11-17T12:04:49.247Z,983.96
2022-11-17T12:05:49.215Z,984.01
2022-11-17T12:06:49.195Z,984.00
2022-11-17T12:07:49.193Z,984.02
2022-11-17T12:08:49.155Z,984.00
2022-11-17T12:09:49.143Z,984.02
2022-11-17T12:10:49.114Z,984.06
2022-11-17T12:11:49.090Z,984.06
2022-11-17T12:12:49.075Z,984.09
2022-11-17T12:13:53.972Z,984.06
2022-11-17T12:14:49.079Z,984.08
2022-11-17T12:15:49.035Z,984.07
2022-11-17T12:16:48.994Z,984.11
2022-11-17T12:17:48.969Z,984.13
2022-11-17T12:18:48.961Z,984.13
2022-11-17T12:19:48.932Z,984.10
2022-11-17T12:20:48.910Z,984.11
2022-11-17T12:21:48.893Z,984.10
2022-11-17T12:22:48.883Z,984.11
2022-11-17T12:23:48.876Z,984.08
2022-11-17T12:24:48.842Z,984.11
2022-11-17T12:25:53.473Z,984.13
2022-11-17T12:26:48.792Z,984.14
2022-11-17T12:27:48.772Z,984.16